sensor_id;sensor_type;location;lat;lon;timestamp;P1;P2;P0
56495;PMS5003;42804;55.762;38.084;2022-08-11T00:01:57;8.75;8.00;4.00
56495;PMS5003;42804;55.762;38.084;2022-08-11T00:04:33;10.75;5.50;3.00
56495;PMS5003;42804;55.762;38.084;2022-08-11T00:07:02;5.25;5.25;3.00
56495;PMS5003;42804;55.762;38.084;2022-08-11T00:09:31;5.00;5.00;3.00
56495;PMS5003;42804;55.762;38.084;2022-08-11T00:12:10;4.75;4.75;2.50
56495;PMS5003;42804;55.762;38.084;2022-08-11T00:14:39;4.50;4.00;3.00
56495;PMS5003;42804;55.762;38.084;2022-08-11T00:17:08;3.75;3.00;2.25
56495;PMS5003;42804;55.762;38.084;2022-08-11T00:19:39;3.25;3.00;2.00
56495;PMS5003;42804;55.762;38.084;2022-08-11T00:22:30;3.00;2.00;1.25
56495;PMS5003;42804;55.762;38.084;2022-08-11T00:24:59;3.75;3.25;2.00
56495;PMS5003;42804;55.762;38.084;2022-08-11T00:27:36;3.00;3.00;2.00
56495;PMS5003;42804;55.762;38.084;2022-08-11T00:30:05;3.75;3.00;2.00
56495;PMS5003;42804;55.762;38.084;2022-08-11T00:32:34;3.00;3.00;2.00
56495;PMS5003;42804;55.762;38.084;2022-08-11T00:35:06;3.00;2.50;1.75
56495;PMS5003;42804;55.762;38.084;2022-08-11T00:37:54;3.00;3.00;2.00
56495;PMS5003;42804;55.762;38.084;2022-08-11T00:40:24;2.80;2.00;2.00
56495;PMS5003;42804;55.762;38.084;2022-08-11T00:42:59;3.00;2.75;1.00
56495;PMS5003;42804;55.762;38.084;2022-08-11T00:45:30;3.00;2.50;2.00
56495;PMS5003;42804;55.762;38.084;2022-08-11T00:48:02;2.25;1.50;1.00
56495;PMS5003;42804;55.762;38.084;2022-08-11T00:50:39;2.50;2.50;2.00
56495;PMS5003;42804;55.762;38.084;2022-08-11T00:53:13;1.25;1.25;1.00
56495;PMS5003;42804;55.762;38.084;2022-08-11T01:02:05;2.00;2.00;1.75
56495;PMS5003;42804;55.762;38.084;2022-08-11T01:07:28;1.00;1.00;0.00
56495;PMS5003;42804;55.762;38.084;2022-08-11T01:10:26;2.00;2.00;1.25
56495;PMS5003;42804;55.762;38.084;2022-08-11T01:13:07;2.00;2.00;1.00
56495;PMS5003;42804;55.762;38.084;2022-08-11T01:15:53;3.00;3.00;2.00
56495;PMS5003;42804;55.762;38.084;2022-08-11T01:18:44;2.50;2.50;2.00
56495;PMS5003;42804;55.762;38.084;2022-08-11T01:27:26;1.50;1.50;1.50
56495;PMS5003;42804;55.762;38.084;2022-08-11T01:30:13;2.75;2.75;2.00
56495;PMS5003;42804;55.762;38.084;2022-08-11T01:35:36;2.00;2.00;1.75
56495;PMS5003;42804;55.762;38.084;2022-08-11T01:38:25;3.75;3.00;2.00
56495;PMS5003;42804;55.762;38.084;2022-08-11T01:41:10;2.75;2.00;1.00
56495;PMS5003;42804;55.762;38.084;2022-08-11T01:46:45;4.00;3.50;3.00
56495;PMS5003;42804;55.762;38.084;2022-08-11T01:49:18;3.75;3.75;3.00
56495;PMS5003;42804;55.762;38.084;2022-08-11T01:52:14;1.00;1.00;0.75
56495;PMS5003;42804;55.762;38.084;2022-08-11T01:55:02;4.00;3.00;2.25
56495;PMS5003;42804;55.762;38.084;2022-08-11T01:57:35;2.50;2.50;2.00
56495;PMS5003;42804;55.762;38.084;2022-08-11T02:00:06;3.50;3.00;2.75
56495;PMS5003;42804;55.762;38.084;2022-08-11T02:02:38;5.25;4.25;3.00
56495;PMS5003;42804;55.762;38.084;2022-08-11T02:05:22;2.00;2.00;1.50
56495;PMS5003;42804;55.762;38.084;2022-08-11T02:07:55;4.50;4.00;2.25
56495;PMS5003;42804;55.762;38.084;2022-08-11T02:10:29;2.50;2.50;2.00
56495;PMS5003;42804;55.762;38.084;2022-08-11T02:13:39;4.25;4.00;2.75
56495;PMS5003;42804;55.762;38.084;2022-08-11T02:16:16;3.00;3.00;2.50
56495;PMS5003;42804;55.762;38.084;2022-08-11T02:18:47;3.00;3.00;2.00
56495;PMS5003;42804;55.762;38.084;2022-08-11T02:21:37;4.25;4.25;2.75
56495;PMS5003;42804;55.762;38.084;2022-08-11T02:24:28;5.00;4.25;2.00
56495;PMS5003;42804;55.762;38.084;2022-08-11T02:26:59;2.75;2.75;2.25
56495;PMS5003;42804;55.762;38.084;2022-08-11T02:29:31;2.75;2.75;2.00
56495;PMS5003;42804;55.762;38.084;2022-08-11T02:32:04;3.50;3.50;2.00
56495;PMS5003;42804;55.762;38.084;2022-08-11T02:35:01;2.50;2.50;1.75
56495;PMS5003;42804;55.762;38.084;2022-08-11T02:37:36;4.25;4.25;1.75
56495;PMS5003;42804;55.762;38.084;2022-08-11T02:40:20;3.00;2.25;2.00
56495;PMS5003;42804;55.762;38.084;2022-08-11T02:42:53;2.40;2.40;2.00
56495;PMS5003;42804;55.762;38.084;2022-08-11T02:45:31;3.75;3.00;2.00
56495;PMS5003;42804;55.762;38.084;2022-08-11T02:48:03;3.75;3.75;2.25
56495;PMS5003;42804;55.762;38.084;2022-08-11T02:50:55;5.00;3.00;2.00
56495;PMS5003;42804;55.762;38.084;2022-08-11T02:53:31;3.00;3.00;2.00
56495;PMS5003;42804;55.762;38.084;2022-08-11T02:56:07;2.00;2.00;1.00
56495;PMS5003;42804;55.762;38.084;2022-08-11T02:58:42;3.00;3.00;2.00
56495;PMS5003;42804;55.762;38.084;2022-08-11T03:01:35;2.00;2.00;1.50
56495;PMS5003;42804;55.762;38.084;2022-08-11T03:04:07;3.00;3.00;2.00
56495;PMS5003;42804;55.762;38.084;2022-08-11T03:06:40;2.00;2.00;1.25
56495;PMS5003;42804;55.762;38.084;2022-08-11T03:09:12;3.00;3.00;2.00
56495;PMS5003;42804;55.762;38.084;2022-08-11T03:11:49;3.00;2.75;1.25
56495;PMS5003;42804;55.762;38.084;2022-08-11T03:14:39;3.75;3.00;3.00
56495;PMS5003;42804;55.762;38.084;2022-08-11T03:17:29;4.00;4.00;3.00
56495;PMS5003;42804;55.762;38.084;2022-08-11T03:20:18;4.25;4.25;2.75
56495;PMS5003;42804;55.762;38.084;2022-08-11T03:22:50;4.75;4.00;3.00
56495;PMS5003;42804;55.762;38.084;2022-08-11T03:25:23;3.50;3.00;1.75
56495;PMS5003;42804;55.762;38.084;2022-08-11T03:28:25;3.00;3.00;2.00
56495;PMS5003;42804;55.762;38.084;2022-08-11T03:30:57;4.00;4.00;3.00
56495;PMS5003;42804;55.762;38.084;2022-08-11T03:33:28;3.00;3.00;2.00
56495;PMS5003;42804;55.762;38.084;2022-08-11T03:36:39;3.50;3.00;2.00
56495;PMS5003;42804;55.762;38.084;2022-08-11T03:39:36;2.25;2.25;1.25
56495;PMS5003;42804;55.762;38.084;2022-08-11T03:42:24;3.25;3.25;2.50
56495;PMS5003;42804;55.762;38.084;2022-08-11T03:45:04;3.75;3.00;2.25
56495;PMS5003;42804;55.762;38.084;2022-08-11T03:47:41;2.50;2.50;2.00
56495;PMS5003;42804;55.762;38.084;2022-08-11T03:50:27;2.00;2.00;1.25
56495;PMS5003;42804;55.762;38.084;2022-08-11T03:53:02;3.00;3.00;3.00
56495;PMS5003;42804;55.762;38.084;2022-08-11T03:55:38;4.75;4.75;3.75
56495;PMS5003;42804;55.762;38.084;2022-08-11T04:06:44;5.25;4.75;4.00
56495;PMS5003;42804;55.762;38.084;2022-08-11T04:09:35;3.25;3.25;2.25
56495;PMS5003;42804;55.762;38.084;2022-08-11T04:15:13;4.00;3.00;2.00
56495;PMS5003;42804;55.762;38.084;2022-08-11T04:18:05;5.00;5.00;3.75
56495;PMS5003;42804;55.762;38.084;2022-08-11T04:23:41;5.75;4.75;3.75
56495;PMS5003;42804;55.762;38.084;2022-08-11T04:26:44;3.00;2.50;1.00
56495;PMS5003;42804;55.762;38.084;2022-08-11T04:29:22;4.50;4.00;2.00
56495;PMS5003;42804;55.762;38.084;2022-08-11T04:32:27;7.00;7.00;4.75
56495;PMS5003;42804;55.762;38.084;2022-08-11T04:37:54;6.00;6.00;4.00
56495;PMS5003;42804;55.762;38.084;2022-08-11T04:40:47;8.50;7.50;6.00
56495;PMS5003;42804;55.762;38.084;2022-08-11T04:43:30;7.25;6.75;5.00
56495;PMS5003;42804;55.762;38.084;2022-08-11T04:46:32;7.50;6.50;5.00
56495;PMS5003;42804;55.762;38.084;2022-08-11T04:49:18;7.50;6.75;4.00
56495;PMS5003;42804;55.762;38.084;2022-08-11T04:52:18;6.00;6.00;5.00
56495;PMS5003;42804;55.762;38.084;2022-08-11T04:55:14;7.00;7.00;4.50
56495;PMS5003;42804;55.762;38.084;2022-08-11T04:58:11;5.25;5.25;4.00
56495;PMS5003;42804;55.762;38.084;2022-08-11T05:01:04;7.25;7.00;5.00
56495;PMS5003;42804;55.762;38.084;2022-08-11T05:04:02;9.25;9.00;6.00
56495;PMS5003;42804;55.762;38.084;2022-08-11T05:06:59;8.75;8.00;6.00
56495;PMS5003;42804;55.762;38.084;2022-08-11T05:09:39;7.50;6.25;4.00
56495;PMS5003;42804;55.762;38.084;2022-08-11T05:12:14;5.75;5.75;4.75
56495;PMS5003;42804;55.762;38.084;2022-08-11T05:14:49;7.00;7.00;6.00
56495;PMS5003;42804;55.762;38.084;2022-08-11T05:17:36;6.75;6.75;5.25
56495;PMS5003;42804;55.762;38.084;2022-08-11T05:20:41;7.25;7.25;6.00
56495;PMS5003;42804;55.762;38.084;2022-08-11T05:23:31;7.75;7.00;5.00
56495;PMS5003;42804;55.762;38.084;2022-08-11T05:26:19;8.00;8.00;6.50
56495;PMS5003;42804;55.762;38.084;2022-08-11T05:29:23;6.25;6.25;5.00
56495;PMS5003;42804;55.762;38.084;2022-08-11T05:32:12;6.00;5.75;3.50
56495;PMS5003;42804;55.762;38.084;2022-08-11T05:35:01;5.00;4.00;3.75
56495;PMS5003;42804;55.762;38.084;2022-08-11T05:37:32;6.00;6.00;4.25
56495;PMS5003;42804;55.762;38.084;2022-08-11T05:40:04;5.75;5.75;4.50
56495;PMS5003;42804;55.762;38.084;2022-08-11T05:42:53;3.75;2.50;1.75
56495;PMS5003;42804;55.762;38.084;2022-08-11T05:45:39;6.00;6.00;4.00
56495;PMS5003;42804;55.762;38.084;2022-08-11T05:48:33;7.00;7.00;5.00
56495;PMS5003;42804;55.762;38.084;2022-08-11T05:51:19;4.50;4.50;4.00
56495;PMS5003;42804;55.762;38.084;2022-08-11T05:54:20;5.50;5.50;4.75
56495;PMS5003;42804;55.762;38.084;2022-08-11T05:57:07;5.00;4.25;3.00
56495;PMS5003;42804;55.762;38.084;2022-08-11T05:59:57;6.00;6.00;4.00
56495;PMS5003;42804;55.762;38.084;2022-08-11T06:02:26;6.75;6.50;5.00
56495;PMS5003;42804;55.762;38.084;2022-08-11T06:04:57;6.00;6.00;5.25
56495;PMS5003;42804;55.762;38.084;2022-08-11T06:07:28;7.25;7.00;5.00
56495;PMS5003;42804;55.762;38.084;2022-08-11T06:10:24;5.00;5.00;3.60
56495;PMS5003;42804;55.762;38.084;2022-08-11T06:12:52;7.50;7.50;6.00
56495;PMS5003;42804;55.762;38.084;2022-08-11T06:15:21;6.40;5.80;4.80
56495;PMS5003;42804;55.762;38.084;2022-08-11T06:17:50;6.50;6.50;5.50
56495;PMS5003;42804;55.762;38.084;2022-08-11T06:20:21;8.25;7.00;5.25
56495;PMS5003;42804;55.762;38.084;2022-08-11T06:22:54;6.00;6.00;5.00
56495;PMS5003;42804;55.762;38.084;2022-08-11T06:25:29;6.75;6.75;5.75
56495;PMS5003;42804;55.762;38.084;2022-08-11T06:27:57;6.25;6.25;5.00
56495;PMS5003;42804;55.762;38.084;2022-08-11T06:30:36;6.00;6.00;4.75
56495;PMS5003;42804;55.762;38.084;2022-08-11T06:33:08;7.75;7.75;6.00
56495;PMS5003;42804;55.762;38.084;2022-08-11T06:35:46;7.75;7.75;6.00
56495;PMS5003;42804;55.762;38.084;2022-08-11T06:38:23;7.75;7.00;5.00
56495;PMS5003;42804;55.762;38.084;2022-08-11T06:40:55;5.75;5.75;4.75
56495;PMS5003;42804;55.762;38.084;2022-08-11T06:43:45;8.00;8.00;6.00
56495;PMS5003;42804;55.762;38.084;2022-08-11T06:46:25;7.00;7.00;5.75
56495;PMS5003;42804;55.762;38.084;2022-08-11T06:48:54;8.25;8.25;6.25
56495;PMS5003;42804;55.762;38.084;2022-08-11T06:51:24;5.50;5.50;4.00
56495;PMS5003;42804;55.762;38.084;2022-08-11T06:53:59;8.00;7.00;6.25
56495;PMS5003;42804;55.762;38.084;2022-08-11T06:56:31;6.50;6.00;4.75
56495;PMS5003;42804;55.762;38.084;2022-08-11T06:59:38;8.00;7.50;6.00
56495;PMS5003;42804;55.762;38.084;2022-08-11T07:02:26;6.25;5.75;4.00
56495;PMS5003;42804;55.762;38.084;2022-08-11T07:04:58;2.25;1.75;1.00
56495;PMS5003;42804;55.762;38.084;2022-08-11T07:10:56;8.00;7.00;5.25
56495;PMS5003;42804;55.762;38.084;2022-08-11T07:13:45;6.50;6.00;5.00
56495;PMS5003;42804;55.762;38.084;2022-08-11T07:16:31;7.00;7.00;5.00
56495;PMS5003;42804;55.762;38.084;2022-08-11T07:19:02;6.50;6.50;4.50
56495;PMS5003;42804;55.762;38.084;2022-08-11T07:21:48;9.25;7.75;6.00
56495;PMS5003;42804;55.762;38.084;2022-08-11T07:24:35;6.00;6.00;4.40
56495;PMS5003;42804;55.762;38.084;2022-08-11T07:27:31;7.00;6.50;4.00
56495;PMS5003;42804;55.762;38.084;2022-08-11T07:30:20;5.60;5.60;4.00
56495;PMS5003;42804;55.762;38.084;2022-08-11T07:32:53;5.00;4.00;3.00
56495;PMS5003;42804;55.762;38.084;2022-08-11T07:35:23;8.20;8.20;6.40
56495;PMS5003;42804;55.762;38.084;2022-08-11T07:37:56;6.80;6.00;5.00
56495;PMS5003;42804;55.762;38.084;2022-08-11T07:40:28;6.40;6.40;5.20
56495;PMS5003;42804;55.762;38.084;2022-08-11T07:42:58;5.40;5.40;4.00
56495;PMS5003;42804;55.762;38.084;2022-08-11T07:45:27;7.00;6.20;4.80
56495;PMS5003;42804;55.762;38.084;2022-08-11T07:48:13;4.80;4.80;3.20
56495;PMS5003;42804;55.762;38.084;2022-08-11T07:50:59;4.25;4.25;3.00
56495;PMS5003;42804;55.762;38.084;2022-08-11T07:53:45;6.40;5.80;5.00
56495;PMS5003;42804;55.762;38.084;2022-08-11T07:56:34;4.25;4.25;3.00
56495;PMS5003;42804;55.762;38.084;2022-08-11T07:59:21;5.00;5.00;3.75
56495;PMS5003;42804;55.762;38.084;2022-08-11T08:02:37;5.25;5.25;3.00
56495;PMS5003;42804;55.762;38.084;2022-08-11T08:05:23;7.00;6.00;5.00
56495;PMS5003;42804;55.762;38.084;2022-08-11T08:08:09;6.40;6.40;5.60
56495;PMS5003;42804;55.762;38.084;2022-08-11T08:10:55;7.00;6.20;5.00
56495;PMS5003;42804;55.762;38.084;2022-08-11T08:13:40;6.00;6.00;5.00
56495;PMS5003;42804;55.762;38.084;2022-08-11T08:16:30;7.00;6.00;4.25
56495;PMS5003;42804;55.762;38.084;2022-08-11T08:19:17;7.50;7.50;5.25
56495;PMS5003;42804;55.762;38.084;2022-08-11T08:21:46;5.00;5.00;4.40
56495;PMS5003;42804;55.762;38.084;2022-08-11T08:24:16;7.00;6.00;4.75
56495;PMS5003;42804;55.762;38.084;2022-08-11T08:26:47;5.50;5.50;4.00
56495;PMS5003;42804;55.762;38.084;2022-08-11T08:29:30;6.00;6.00;5.00
56495;PMS5003;42804;55.762;38.084;2022-08-11T08:32:18;4.00;2.60;2.40
56495;PMS5003;42804;55.762;38.084;2022-08-11T08:34:47;8.00;7.50;6.00
56495;PMS5003;42804;55.762;38.084;2022-08-11T08:37:17;6.00;6.00;4.50
56495;PMS5003;42804;55.762;38.084;2022-08-11T08:40:06;6.75;6.50;5.50
56495;PMS5003;42804;55.762;38.084;2022-08-11T08:42:37;5.00;3.50;3.00
56495;PMS5003;42804;55.762;38.084;2022-08-11T08:45:12;5.75;5.75;4.25
56495;PMS5003;42804;55.762;38.084;2022-08-11T08:47:50;4.00;4.00;3.00
56495;PMS5003;42804;55.762;38.084;2022-08-11T08:50:22;5.00;5.00;4.00
56495;PMS5003;42804;55.762;38.084;2022-08-11T08:53:20;5.50;5.00;4.00
56495;PMS5003;42804;55.762;38.084;2022-08-11T08:55:50;5.75;5.50;3.75
56495;PMS5003;42804;55.762;38.084;2022-08-11T08:58:23;6.25;6.00;5.00
56495;PMS5003;42804;55.762;38.084;2022-08-11T09:00:53;4.00;4.00;3.00
56495;PMS5003;42804;55.762;38.084;2022-08-11T09:03:24;5.00;4.00;2.50
56495;PMS5003;42804;55.762;38.084;2022-08-11T09:06:13;5.50;5.50;4.50
56495;PMS5003;42804;55.762;38.084;2022-08-11T09:08:42;4.40;4.40;4.00
56495;PMS5003;42804;55.762;38.084;2022-08-11T09:11:15;4.00;4.00;3.00
56495;PMS5003;42804;55.762;38.084;2022-08-11T09:14:01;5.00;5.00;3.50
56495;PMS5003;42804;55.762;38.084;2022-08-11T09:16:35;4.40;4.40;4.00
56495;PMS5003;42804;55.762;38.084;2022-08-11T09:19:06;4.00;4.00;3.20
56495;PMS5003;42804;55.762;38.084;2022-08-11T09:21:39;4.80;4.80;3.80
56495;PMS5003;42804;55.762;38.084;2022-08-11T09:24:15;4.00;4.00;3.00
56495;PMS5003;42804;55.762;38.084;2022-08-11T09:27:03;4.25;4.25;3.00
56495;PMS5003;42804;55.762;38.084;2022-08-11T09:29:32;4.00;4.00;3.50
56495;PMS5003;42804;55.762;38.084;2022-08-11T09:32:00;5.00;5.00;4.00
56495;PMS5003;42804;55.762;38.084;2022-08-11T09:34:30;5.25;5.25;4.00
56495;PMS5003;42804;55.762;38.084;2022-08-11T09:37:02;3.20;2.40;1.60
56495;PMS5003;42804;55.762;38.084;2022-08-11T09:40:08;4.50;4.50;3.75
56495;PMS5003;42804;55.762;38.084;2022-08-11T09:42:56;5.00;5.00;4.00
56495;PMS5003;42804;55.762;38.084;2022-08-11T09:45:43;4.00;4.00;3.60
56495;PMS5003;42804;55.762;38.084;2022-08-11T09:48:17;4.25;3.75;3.00
56495;PMS5003;42804;55.762;38.084;2022-08-11T09:50:48;4.75;4.25;3.50
56495;PMS5003;42804;55.762;38.084;2022-08-11T09:53:17;3.75;3.75;3.00
56495;PMS5003;42804;55.762;38.084;2022-08-11T09:56:06;4.00;4.00;3.25
56495;PMS5003;42804;55.762;38.084;2022-08-11T09:58:54;3.00;3.00;2.40
56495;PMS5003;42804;55.762;38.084;2022-08-11T10:01:23;4.50;4.00;3.00
56495;PMS5003;42804;55.762;38.084;2022-08-11T10:03:55;5.00;4.00;3.00
56495;PMS5003;42804;55.762;38.084;2022-08-11T10:06:28;5.00;5.00;3.40
56495;PMS5003;42804;55.762;38.084;2022-08-11T10:09:20;4.00;4.00;3.40
56495;PMS5003;42804;55.762;38.084;2022-08-11T10:11:52;2.80;2.80;2.00
56495;PMS5003;42804;55.762;38.084;2022-08-11T10:14:24;4.80;4.60;3.00
56495;PMS5003;42804;55.762;38.084;2022-08-11T10:17:10;3.40;3.40;2.40
56495;PMS5003;42804;55.762;38.084;2022-08-11T10:19:41;4.00;4.00;3.00
56495;PMS5003;42804;55.762;38.084;2022-08-11T10:22:32;3.50;3.50;2.75
56495;PMS5003;42804;55.762;38.084;2022-08-11T10:25:19;3.00;3.00;2.00
56495;PMS5003;42804;55.762;38.084;2022-08-11T10:28:06;5.00;5.00;3.40
56495;PMS5003;42804;55.762;38.084;2022-08-11T10:30:55;4.50;4.00;3.00
56495;PMS5003;42804;55.762;38.084;2022-08-11T10:33:43;3.00;3.00;2.00
56495;PMS5003;42804;55.762;38.084;2022-08-11T10:36:31;3.25;3.25;2.50
56495;PMS5003;42804;55.762;38.084;2022-08-11T10:39:01;4.00;4.00;3.00
56495;PMS5003;42804;55.762;38.084;2022-08-11T10:41:30;4.00;4.00;4.00
56495;PMS5003;42804;55.762;38.084;2022-08-11T10:44:36;3.25;3.25;2.50
56495;PMS5003;42804;55.762;38.084;2022-08-11T10:47:05;4.00;4.00;3.00
56495;PMS5003;42804;55.762;38.084;2022-08-11T10:49:51;4.25;4.25;3.00
56495;PMS5003;42804;55.762;38.084;2022-08-11T10:52:34;3.20;3.00;2.00
56495;PMS5003;42804;55.762;38.084;2022-08-11T10:55:23;3.75;3.00;2.00
56495;PMS5003;42804;55.762;38.084;2022-08-11T10:58:09;3.80;3.20;2.60
56495;PMS5003;42804;55.762;38.084;2022-08-11T11:00:55;3.80;3.20;2.60
56495;PMS5003;42804;55.762;38.084;2022-08-11T11:03:24;3.00;3.00;2.00
56495;PMS5003;42804;55.762;38.084;2022-08-11T11:05:54;5.25;4.50;3.00
56495;PMS5003;42804;55.762;38.084;2022-08-11T11:08:44;3.50;3.50;3.00
56495;PMS5003;42804;55.762;38.084;2022-08-11T11:11:29;4.75;4.00;3.00
56495;PMS5003;42804;55.762;38.084;2022-08-11T11:14:18;3.40;3.00;2.00
56495;PMS5003;42804;55.762;38.084;2022-08-11T11:17:16;5.00;5.00;4.00
56495;PMS5003;42804;55.762;38.084;2022-08-11T11:20:04;5.00;4.80;3.80
56495;PMS5003;42804;55.762;38.084;2022-08-11T11:22:57;1.00;1.00;0.00
56495;PMS5003;42804;55.762;38.084;2022-08-11T11:25:37;4.40;4.00;3.20
56495;PMS5003;42804;55.762;38.084;2022-08-11T11:28:45;3.20;3.20;2.60
56495;PMS5003;42804;55.762;38.084;2022-08-11T11:31:22;3.20;3.20;2.20
56495;PMS5003;42804;55.762;38.084;2022-08-11T11:33:59;4.20;4.20;3.20
56495;PMS5003;42804;55.762;38.084;2022-08-11T11:36:43;3.40;3.40;2.80
56495;PMS5003;42804;55.762;38.084;2022-08-11T11:39:18;4.80;4.80;4.20
56495;PMS5003;42804;55.762;38.084;2022-08-11T11:41:47;3.00;3.00;2.20
56495;PMS5003;42804;55.762;38.084;2022-08-11T11:44:18;4.00;4.00;4.00
56495;PMS5003;42804;55.762;38.084;2022-08-11T11:46:47;4.00;3.75;3.50
56495;PMS5003;42804;55.762;38.084;2022-08-11T11:49:16;6.00;6.00;5.00
56495;PMS5003;42804;55.762;38.084;2022-08-11T11:51:50;6.00;5.80;4.60
56495;PMS5003;42804;55.762;38.084;2022-08-11T11:54:20;5.00;4.60;3.80
56495;PMS5003;42804;55.762;38.084;2022-08-11T11:56:49;2.75;2.75;2.00
56495;PMS5003;42804;55.762;38.084;2022-08-11T11:59:25;3.80;3.80;3.00
56495;PMS5003;42804;55.762;38.084;2022-08-11T12:02:22;4.60;4.60;4.00
56495;PMS5003;42804;55.762;38.084;2022-08-11T12:04:54;5.00;5.00;4.75
56495;PMS5003;42804;55.762;38.084;2022-08-11T12:07:22;4.75;4.75;4.00
56495;PMS5003;42804;55.762;38.084;2022-08-11T12:10:22;5.00;5.00;4.00
56495;PMS5003;42804;55.762;38.084;2022-08-11T12:12:51;5.80;5.80;4.60
56495;PMS5003;42804;55.762;38.084;2022-08-11T12:15:40;3.20;3.00;2.00
56495;PMS5003;42804;55.762;38.084;2022-08-11T12:18:30;4.40;4.40;3.40
56495;PMS5003;42804;55.762;38.084;2022-08-11T12:21:01;4.20;4.20;3.80
56495;PMS5003;42804;55.762;38.084;2022-08-11T12:23:35;5.00;5.00;4.50
56495;PMS5003;42804;55.762;38.084;2022-08-11T12:26:21;6.00;6.00;4.00
56495;PMS5003;42804;55.762;38.084;2022-08-11T12:29:41;5.00;4.25;3.25
56495;PMS5003;42804;55.762;38.084;2022-08-11T12:32:22;4.75;4.25;3.50
56495;PMS5003;42804;55.762;38.084;2022-08-11T12:34:56;5.00;5.00;3.00
56495;PMS5003;42804;55.762;38.084;2022-08-11T12:37:26;2.40;2.40;2.00
56495;PMS5003;42804;55.762;38.084;2022-08-11T12:39:57;6.00;6.00;4.00
56495;PMS5003;42804;55.762;38.084;2022-08-11T12:43:05;4.25;4.25;3.75
56495;PMS5003;42804;55.762;38.084;2022-08-11T12:46:08;5.80;5.80;4.00
56495;PMS5003;42804;55.762;38.084;2022-08-11T12:48:42;4.00;3.75;2.25
56495;PMS5003;42804;55.762;38.084;2022-08-11T12:51:31;5.25;5.25;4.25
56495;PMS5003;42804;55.762;38.084;2022-08-11T12:54:40;5.50;5.50;5.00
56495;PMS5003;42804;55.762;38.084;2022-08-11T12:57:13;6.80;5.00;4.00
56495;PMS5003;42804;55.762;38.084;2022-08-11T13:00:04;4.80;4.80;4.00
56495;PMS5003;42804;55.762;38.084;2022-08-11T13:02:51;4.00;4.00;3.00
56495;PMS5003;42804;55.762;38.084;2022-08-11T13:05:41;5.60;5.60;4.60
56495;PMS5003;42804;55.762;38.084;2022-08-11T13:08:11;5.00;5.00;4.60
56495;PMS5003;42804;55.762;38.084;2022-08-11T13:10:42;5.00;5.00;4.00
56495;PMS5003;42804;55.762;38.084;2022-08-11T13:13:27;6.00;6.00;5.00
56495;PMS5003;42804;55.762;38.084;2022-08-11T13:16:18;5.00;5.00;4.00
56495;PMS5003;42804;55.762;38.084;2022-08-11T13:18:48;4.40;4.40;3.00
56495;PMS5003;42804;55.762;38.084;2022-08-11T13:21:21;5.80;5.80;4.40
56495;PMS5003;42804;55.762;38.084;2022-08-11T13:23:52;8.75;8.00;6.25
56495;PMS5003;42804;55.762;38.084;2022-08-11T13:26:28;6.20;6.00;4.00
56495;PMS5003;42804;55.762;38.084;2022-08-11T13:29:14;6.00;6.00;5.00
56495;PMS5003;42804;55.762;38.084;2022-08-11T13:31:44;4.75;4.75;4.00
56495;PMS5003;42804;55.762;38.084;2022-08-11T13:34:13;5.00;5.00;4.00
56495;PMS5003;42804;55.762;38.084;2022-08-11T13:36:44;6.00;6.00;5.00
56495;PMS5003;42804;55.762;38.084;2022-08-11T13:39:14;6.00;6.00;5.00
56495;PMS5003;42804;55.762;38.084;2022-08-11T13:41:43;5.00;5.00;4.50
56495;PMS5003;42804;55.762;38.084;2022-08-11T13:44:14;4.75;4.75;4.00
56495;PMS5003;42804;55.762;38.084;2022-08-11T13:46:49;6.25;6.25;5.25
56495;PMS5003;42804;55.762;38.084;2022-08-11T13:49:18;6.25;5.50;5.00
56495;PMS5003;42804;55.762;38.084;2022-08-11T13:51:49;6.00;6.00;5.00
56495;PMS5003;42804;55.762;38.084;2022-08-11T13:54:18;6.25;5.75;5.00
56495;PMS5003;42804;55.762;38.084;2022-08-11T13:56:49;7.00;6.00;4.60
56495;PMS5003;42804;55.762;38.084;2022-08-11T13:59:19;6.00;5.00;4.20
56495;PMS5003;42804;55.762;38.084;2022-08-11T14:01:56;6.00;6.00;5.00
56495;PMS5003;42804;55.762;38.084;2022-08-11T14:04:47;7.25;7.25;5.50
56495;PMS5003;42804;55.762;38.084;2022-08-11T14:07:19;5.75;5.75;4.75
56495;PMS5003;42804;55.762;38.084;2022-08-11T14:09:50;6.80;6.60;5.40
56495;PMS5003;42804;55.762;38.084;2022-08-11T14:12:23;6.00;6.00;5.00
56495;PMS5003;42804;55.762;38.084;2022-08-11T14:15:11;6.50;6.50;4.75
56495;PMS5003;42804;55.762;38.084;2022-08-11T14:17:46;6.20;5.80;4.00
56495;PMS5003;42804;55.762;38.084;2022-08-11T14:20:18;5.00;5.00;4.00
56495;PMS5003;42804;55.762;38.084;2022-08-11T14:23:07;6.20;5.80;5.00
56495;PMS5003;42804;55.762;38.084;2022-08-11T14:25:38;5.20;5.20;4.00
56495;PMS5003;42804;55.762;38.084;2022-08-11T14:28:28;4.80;4.80;4.00
56495;PMS5003;42804;55.762;38.084;2022-08-11T14:31:05;7.25;6.25;5.00
56495;PMS5003;42804;55.762;38.084;2022-08-11T14:33:34;4.00;4.00;3.25
56495;PMS5003;42804;55.762;38.084;2022-08-11T14:36:23;6.00;6.00;5.00
56495;PMS5003;42804;55.762;38.084;2022-08-11T14:38:54;5.00;5.00;4.00
56495;PMS5003;42804;55.762;38.084;2022-08-11T14:41:22;7.00;7.00;6.00
56495;PMS5003;42804;55.762;38.084;2022-08-11T14:44:29;6.00;6.00;4.00
56495;PMS5003;42804;55.762;38.084;2022-08-11T14:47:16;5.75;5.75;5.00
56495;PMS5003;42804;55.762;38.084;2022-08-11T14:49:51;4.75;4.75;3.50
56495;PMS5003;42804;55.762;38.084;2022-08-11T14:52:38;6.50;6.50;5.50
56495;PMS5003;42804;55.762;38.084;2022-08-11T14:55:08;6.50;5.75;5.00
56495;PMS5003;42804;55.762;38.084;2022-08-11T14:57:55;5.75;5.75;4.75
56495;PMS5003;42804;55.762;38.084;2022-08-11T15:00:23;4.25;3.75;3.50
56495;PMS5003;42804;55.762;38.084;2022-08-11T15:02:52;6.00;6.00;4.60
56495;PMS5003;42804;55.762;38.084;2022-08-11T15:05:40;6.00;6.00;5.00
56495;PMS5003;42804;55.762;38.084;2022-08-11T15:08:24;6.40;6.00;5.00
56495;PMS5003;42804;55.762;38.084;2022-08-11T15:11:08;6.00;6.00;5.00
56495;PMS5003;42804;55.762;38.084;2022-08-11T15:13:58;6.00;6.00;4.60
56495;PMS5003;42804;55.762;38.084;2022-08-11T15:16:27;6.20;6.20;5.00
56495;PMS5003;42804;55.762;38.084;2022-08-11T15:19:13;6.00;5.75;4.50
56495;PMS5003;42804;55.762;38.084;2022-08-11T15:21:42;7.00;7.00;5.00
56495;PMS5003;42804;55.762;38.084;2022-08-11T15:24:28;8.75;8.00;6.25
56495;PMS5003;42804;55.762;38.084;2022-08-11T15:26:58;6.75;6.00;5.25
56495;PMS5003;42804;55.762;38.084;2022-08-11T15:29:45;5.50;4.50;3.50
56495;PMS5003;42804;55.762;38.084;2022-08-11T15:32:32;5.80;5.20;4.80
56495;PMS5003;42804;55.762;38.084;2022-08-11T15:35:18;5.25;5.25;5.00
56495;PMS5003;42804;55.762;38.084;2022-08-11T15:38:05;7.00;7.00;5.50
56495;PMS5003;42804;55.762;38.084;2022-08-11T15:40:37;6.00;6.00;5.00
56495;PMS5003;42804;55.762;38.084;2022-08-11T15:43:26;7.00;7.00;6.00
56495;PMS5003;42804;55.762;38.084;2022-08-11T15:46:13;8.50;8.50;7.25
56495;PMS5003;42804;55.762;38.084;2022-08-11T15:48:44;7.80;7.80;6.00
56495;PMS5003;42804;55.762;38.084;2022-08-11T15:51:15;6.20;6.20;4.40
56495;PMS5003;42804;55.762;38.084;2022-08-11T15:53:51;5.25;5.25;4.50
56495;PMS5003;42804;55.762;38.084;2022-08-11T15:56:23;7.00;7.00;6.00
56495;PMS5003;42804;55.762;38.084;2022-08-11T15:58:54;6.00;6.00;5.00
56495;PMS5003;42804;55.762;38.084;2022-08-11T16:02:01;9.50;7.25;6.00
56495;PMS5003;42804;55.762;38.084;2022-08-11T16:04:53;6.50;6.50;5.75
56495;PMS5003;42804;55.762;38.084;2022-08-11T16:07:23;6.25;6.25;6.00